Cataldo, Idaho
Current Conditions -  °F | °C
As of 4:55 AM on Sunday 21 Dec 2014 (Local Time) from KCOE Reporting Station
Overcast Overcast  
Wind Chill: 36°   Ceiling: 1600
Heat Index: 45°   Visibility: 10mi
Dew Point: 39°   Wind: 23mph
Humidity: 81%   Direction: 240°WSW
Pressure: 29.53"   Gusts: 30mph
Location:  47.55°N, 116.33°W
Report Text: KCOE 211255Z AUTO 24020G26KT 10SM BKN016 OVC026 07/04 A2953 RMK AO1
Loading
Personal Weather Stations






























Interactive Weather Map New forecast layout! Learn more

10-Day Weather Forecast

Advertisements
Track Severe Weather on mobile